Aviation Digital Data Service (ADDS)

Output produced by METARs form (0824 UTC 24 August 2016)
found at http://aviationweather.gov/adds/metars/
 
KPWM 240523Z 2406/2506 24006KT P6SM SCT250 
     FM241800 19009KT P6SM SKC 
     FM250100 VRB03KT P6SM SKC